Terminal Aerodrome Forecast
Issued by NWS Northern Indiana

Home | Current Version | Previous Version | Graphics & Text | Print | Product List | Glossary On
Versions: 1 2 3 4 5 6 7 8 9 10 11 12 13 14 15
325
FTUS43 KIWX 211723
TAFFWA
TAF
KFWA 211723Z 2118/2218 22006KT P6SM VCSH OVC060
     FM220000 18003KT P6SM BKN040
     FM220300 21003KT 4SM BR BKN025
     FM221000 22004KT 1/2SM FG BKN010
     FM221500 22008KT P6SM SCT015=

USA.gov is the U.S. government's official web portal to all federal, state and local government web resources and services.